Cuivre River (Missouri), Troy (05514500)

StateMissouriLatestGood (351 cfs)
RiverCuivre RiverRatingObservedEstimated
Updated2020-08-14 6:00 (9 minutes ago)Flood - The river is flooding. Obstacles can be treacherous or deadly. The river should be avoided at this stage for casual trips and definitely for the inexperienced. Trips should be attempted only with protective gear and equipment.Flood(none)2644
Discharge351 cfs (median: 25 cfs)High - The river is high and potentially dangerous, especially for the young and / or inexperienced. Normal stream obstacles are sometimes difficult to navigate. Extended distances can be attempted, but canoe travel may not be advisable.High(none)675
Height(none)Good - Conditions are ideal for a canoe or kayak. Boats typically will drag on fewer than one-quarter of riffles, if at all, and portages are unnecessary or rare. Normal float lengths can be attempted without a problem.Good(none)205
TrendSteady (falling over 24 hours)Low - River is low but can still be floated. Some riffles are okay but most come with significant dragging and might need a portage. Float lengths should be reduced to accommodate low flow, dragging, and portages.Low(none)129
USGSExternal icon USGS Site (External icon Google Maps)Poor - River is too low to float comfortably. Most or all riffles will drag or must be portaged and some obstacles (such as slick shelf rock) cause undue problems. Avoid the river at this stage for casual paddling trips.Poor(none)31

Trending Data

Plot Image

Trips for Cuivre River (Missouri), Troy (05514500)

DateStartEndDistanceConditionDischargeHeightFishingDetails

A total of 0 rows are displayed.

Condition Descriptions

Fishing Conditions

Fish Species

Notes

Classic Trip List

The classic River Trips application is still available for use. It is updated with the new system using a data retrofit. It is no longer maintained. The original River Trips application is no longer updated (as of 1 Dec 2016) but can be checked for errors or for the condition of the data before it was converted to the new system.

Gauge Data Table

ObservationHeightDischargeMaximum
Discharge
Minimum
Discharge
Mean
Discharge
P05P10P20P25P50
(Median)
P75P80P90P95
2020-08-14 06:00 351 8700 (1927) 0 (1934) 305 1 3 8 11 25 95 110 768 1470
2020-08-14 05:30 6.76 351 8700 (1927) 0 (1934) 305 1 3 8 11 25 95 110 768 1470
2020-08-14 05:00 6.78 358 8700 (1927) 0 (1934) 305 1 3 8 11 25 95 110 768 1470
2020-08-14 04:30 6.78 358 8700 (1927) 0 (1934) 305 1 3 8 11 25 95 110 768 1470
2020-08-14 04:00 6.79 361 8700 (1927) 0 (1934) 305 1 3 8 11 25 95 110 768 1470
2020-08-14 03:30 6.80 365 8700 (1927) 0 (1934) 305 1 3 8 11 25 95 110 768 1470
2020-08-14 03:00 6.81 368 8700 (1927) 0 (1934) 305 1 3 8 11 25 95 110 768 1470
2020-08-14 02:30 6.82 372 8700 (1927) 0 (1934) 305 1 3 8 11 25 95 110 768 1470
2020-08-14 02:00 6.83 376 8700 (1927) 0 (1934) 305 1 3 8 11 25 95 110 768 1470
2020-08-14 01:30 6.84 379 8700 (1927) 0 (1934) 305 1 3 8 11 25 95 110 768 1470
2020-08-14 01:00 6.85 383 8700 (1927) 0 (1934) 305 1 3 8 11 25 95 110 768 1470
2020-08-14 00:30 6.86 387 8700 (1927) 0 (1934) 305 1 3 8 11 25 95 110 768 1470
2020-08-14 00:00 6.87 391 8700 (1927) 0 (1934) 305 1 3 8 11 25 95 110 768 1470
2020-08-13 23:30 6.89 398 14300 (1993) 0 (1934) 488 1 3 7 11 29 99 131 411 3680
2020-08-13 23:00 6.90 402 14300 (1993) 0 (1934) 488 1 3 7 11 29 99 131 411 3680
2020-08-13 22:30 6.91 406 14300 (1993) 0 (1934) 488 1 3 7 11 29 99 131 411 3680
2020-08-13 22:00 6.93 414 14300 (1993) 0 (1934) 488 1 3 7 11 29 99 131 411 3680
2020-08-13 21:30 6.95 422 14300 (1993) 0 (1934) 488 1 3 7 11 29 99 131 411 3680
2020-08-13 21:00 6.96 425 14300 (1993) 0 (1934) 488 1 3 7 11 29 99 131 411 3680
2020-08-13 20:30 6.99 438 14300 (1993) 0 (1934) 488 1 3 7 11 29 99 131 411 3680
2020-08-13 20:00 7.01 446 14300 (1993) 0 (1934) 488 1 3 7 11 29 99 131 411 3680
2020-08-13 19:30 7.04 458 14300 (1993) 0 (1934) 488 1 3 7 11 29 99 131 411 3680
2020-08-13 19:00 7.08 475 14300 (1993) 0 (1934) 488 1 3 7 11 29 99 131 411 3680
2020-08-13 18:30 7.12 491 14300 (1993) 0 (1934) 488 1 3 7 11 29 99 131 411 3680
2020-08-13 18:00 7.16 506 14300 (1993) 0 (1934) 488 1 3 7 11 29 99 131 411 3680
2020-08-13 17:30 7.19 517 14300 (1993) 0 (1934) 488 1 3 7 11 29 99 131 411 3680
2020-08-13 17:00 7.21 525 14300 (1993) 0 (1934) 488 1 3 7 11 29 99 131 411 3680
2020-08-13 16:30 7.18 513 14300 (1993) 0 (1934) 488 1 3 7 11 29 99 131 411 3680
2020-08-13 16:00 7.12 491 14300 (1993) 0 (1934) 488 1 3 7 11 29 99 131 411 3680
2020-08-13 15:30 7.09 479 14300 (1993) 0 (1934) 488 1 3 7 11 29 99 131 411 3680
2020-08-13 15:00 7.08 475 14300 (1993) 0 (1934) 488 1 3 7 11 29 99 131 411 3680
2020-08-13 14:30 7.07 471 14300 (1993) 0 (1934) 488 1 3 7 11 29 99 131 411 3680
2020-08-13 14:00 7.12 491 14300 (1993) 0 (1934) 488 1 3 7 11 29 99 131 411 3680
2020-08-13 13:30 7.14 498 14300 (1993) 0 (1934) 488 1 3 7 11 29 99 131 411 3680
2020-08-13 13:00 7.15 502 14300 (1993) 0 (1934) 488 1 3 7 11 29 99 131 411 3680
2020-08-13 12:30 7.17 510 14300 (1993) 0 (1934) 488 1 3 7 11 29 99 131 411 3680
2020-08-13 12:00 7.18 513 14300 (1993) 0 (1934) 488 1 3 7 11 29 99 131 411 3680
2020-08-13 11:30 7.20 521 14300 (1993) 0 (1934) 488 1 3 7 11 29 99 131 411 3680
2020-08-13 11:00 7.22 529 14300 (1993) 0 (1934) 488 1 3 7 11 29 99 131 411 3680
2020-08-13 10:30 7.24 536 14300 (1993) 0 (1934) 488 1 3 7 11 29 99 131 411 3680
2020-08-13 10:00 7.25 540 14300 (1993) 0 (1934) 488 1 3 7 11 29 99 131 411 3680
2020-08-13 09:30 7.27 548 14300 (1993) 0 (1934) 488 1 3 7 11 29 99 131 411 3680
2020-08-13 09:00 7.29 556 14300 (1993) 0 (1934) 488 1 3 7 11 29 99 131 411 3680
2020-08-13 08:30 7.32 568 14300 (1993) 0 (1934) 488 1 3 7 11 29 99 131 411 3680
2020-08-13 08:00 7.35 581 14300 (1993) 0 (1934) 488 1 3 7 11 29 99 131 411 3680
2020-08-13 07:30 7.38 593 14300 (1993) 0 (1934) 488 1 3 7 11 29 99 131 411 3680
2020-08-13 07:00 7.40 601 14300 (1993) 0 (1934) 488 1 3 7 11 29 99 131 411 3680
2020-08-13 06:30 7.42 610 14300 (1993) 0 (1934) 488 1 3 7 11 29 99 131 411 3680
2020-08-13 06:00 7.45 623 14300 (1993) 0 (1934) 488 1 3 7 11 29 99 131 411 3680
2020-08-13 05:30 7.48 636 14300 (1993) 0 (1934) 488 1 3 7 11 29 99 131 411 3680
2020-08-13 05:00 7.51 649 14300 (1993) 0 (1934) 488 1 3 7 11 29 99 131 411 3680
2020-08-13 04:30 7.53 658 14300 (1993) 0 (1934) 488 1 3 7 11 29 99 131 411 3680
2020-08-13 04:00 7.57 676 14300 (1993) 0 (1934) 488 1 3 7 11 29 99 131 411 3680
2020-08-13 03:30 7.59 685 14300 (1993) 0 (1934) 488 1 3 7 11 29 99 131 411 3680
2020-08-13 03:00 7.63 703 14300 (1993) 0 (1934) 488 1 3 7 11 29 99 131 411 3680
2020-08-13 02:30 7.66 717 14300 (1993) 0 (1934) 488 1 3 7 11 29 99 131 411 3680
2020-08-13 02:00 7.69 732 14300 (1993) 0 (1934) 488 1 3 7 11 29 99 131 411 3680
2020-08-13 01:30 7.72 746 14300 (1993) 0 (1934) 488 1 3 7 11 29 99 131 411 3680
2020-08-13 01:00 7.76 766 14300 (1993) 0 (1934) 488 1 3 7 11 29 99 131 411 3680
2020-08-13 00:30 7.79 780 14300 (1993) 0 (1934) 488 1 3 7 11 29 99 131 411 3680
2020-08-13 00:00 7.83 801 14300 (1993) 0 (1934) 488 1 3 7 11 29 99 131 411 3680

A total of 61 rows are displayed for years 1922 through 2018.